Main page
METAR-TAF:

METAR-TAF

Airports :

Hafar Al-Batin, Saudi Arabia

King Khalid Military City

latitude: 27-54N, longitude: 045-32E, elevation: 413 m

METAR: missing

Time: 23:25 (20:25 UTC)

Forecast

The report was made 16 hours and 25 minutes ago, at 04:00 UTC
Forecast valid from 18 at 06 UTC to 18 at 20 UTC
Wind 12 kt from the North
Visibility: 8000 m
Clear sky
Temporary
from 18 at 08 UTC to 18 at 16 UTC
Visibility: 4000 m
Blowing dust

TAF: OEKK 180400Z 1806/1820 35012KT 8000 SKC TEMPO 1808/1816 4000 BLDU

Weather observations and forecasts of more than 4000 airports (METAR and TAF reports).

The available stations are represented by yellow and red dots on the map.

Hover mouse over dot to see the name of the station.

Then click to see weather observations and forecasts.

To change the map : click on the green buttons with a black cross to zoom in, on the green button with a dash to zoom out, or on the green arrows for adjacent maps.


METAR-TAF: